Time;durP1;ratioP1;P1;durP2;ratioP2;P2;SDS_P1;SDS_P2;PMS_P1;PMS_P2;Temp;Humidity;BMP_temperature;BMP_pressure;BME280_temperature;BME280_humidity;BME280_pressure;Samples;Min_cycle;Max_cycle;Signal;HPM_P1;HPM_P2
2022/05/21 00:02:07;;;;;;;0.10;0.10;;;;;;;-145.06;100.00;63404.56;10317871;28;20025;-89
2022/05/21 00:07:10;;;;;;;0.00;0.00;;;;;;;-145.06;100.00;63404.56;10315600;28;20442;-91
2022/05/21 00:12:11;;;;;;;0.00;0.00;;;;;;;-145.06;100.00;63404.56;10313029;28;20058;-90
2022/05/21 00:17:11;;;;;;;0.08;0.08;;;;;;;-145.06;100.00;63404.56;10319517;28;20526;-90
2022/05/21 00:22:11;;;;;;;0.03;0.03;;;;;;;-145.06;100.00;63404.56;10314619;28;20537;-90
2022/05/21 00:27:12;;;;;;;0.00;0.00;;;;;;;-145.06;100.00;63404.56;10314290;28;20117;-90
2022/05/21 00:32:12;;;;;;;0.10;0.10;;;;;;;-145.06;100.00;63404.56;10314184;28;20661;-90
2022/05/21 00:37:13;;;;;;;0.05;0.05;;;;;;;-145.06;100.00;63404.56;10314905;28;20033;-91
2022/05/21 00:42:13;;;;;;;0.10;0.10;;;;;;;-145.06;100.00;63404.56;10316334;28;20023;-91
2022/05/21 00:47:13;;;;;;;0.03;0.03;;;;;;;-145.06;100.00;63404.56;10316473;28;20031;-92
2022/05/21 00:52:19;;;;;;;0.00;0.00;;;;;;;-145.06;100.00;63404.56;10310960;28;20031;-92
2022/05/21 00:57:30;;;;;;;0.00;0.00;;;;;;;-145.06;100.00;63404.56;10313340;28;20408;-92
2022/05/21 01:02:44;;;;;;;0.00;0.00;;;;;;;-145.06;100.00;63404.56;10312938;28;20042;-91
2022/05/21 01:07:46;;;;;;;0.10;0.10;;;;;;;-145.06;100.00;63404.56;10315413;28;20402;-91
2022/05/21 01:12:50;;;;;;;0.10;0.10;;;;;;;-145.06;100.00;63404.56;10315503;28;20057;-92
2022/05/21 01:17:50;;;;;;;0.00;0.00;;;;;;;-145.06;100.00;63404.56;10309028;28;20053;-92
2022/05/21 01:22:53;;;;;;;0.00;0.00;;;;;;;-145.06;100.00;63404.56;10312749;28;20030;-91
2022/05/21 01:27:54;;;;;;;0.10;0.10;;;;;;;-145.06;100.00;63404.56;10333235;28;20053;-91
2022/05/21 01:32:54;;;;;;;0.00;0.00;;;;;;;-145.06;100.00;63404.56;10317404;28;20114;-91
2022/05/21 01:37:54;;;;;;;0.10;0.10;;;;;;;-145.06;100.00;63404.56;10312175;28;20108;-92
2022/05/21 01:48:18;;;;;;;0.00;0.00;;;;;;;-145.06;100.00;63404.56;10312668;28;20109;-92
2022/05/21 01:53:20;;;;;;;0.00;0.00;;;;;;;-145.06;100.00;63404.56;10311381;28;20570;-91
2022/05/21 01:58:20;;;;;;;0.00;0.00;;;;;;;-145.06;100.00;63404.56;10315184;28;20034;-91
2022/05/21 02:03:21;;;;;;;0.00;0.00;;;;;;;-145.06;100.00;63404.56;10310233;28;20026;-91
2022/05/21 02:08:22;;;;;;;0.10;0.10;;;;;;;-145.06;100.00;63404.56;10312679;28;20257;-91
2022/05/21 02:13:33;;;;;;;0.10;0.10;;;;;;;-145.06;100.00;63404.56;10310616;28;20081;-90
2022/05/21 02:18:33;;;;;;;0.10;0.10;;;;;;;-145.06;100.00;63404.56;10312161;28;20022;-92
2022/05/21 02:23:34;;;;;;;0.10;0.10;;;;;;;-145.06;100.00;63404.56;10308463;28;20461;-89
2022/05/21 02:28:35;;;;;;;0.00;0.00;;;;;;;-145.06;100.00;63404.56;10309251;28;20033;-91
2022/05/21 02:33:35;;;;;;;0.05;0.05;;;;;;;-145.06;100.00;63404.56;10309521;28;20109;-91
2022/05/21 02:43:55;;;;;;;0.10;0.10;;;;;;;-145.06;100.00;63404.56;10310877;28;20550;-90
2022/05/21 02:48:56;;;;;;;0.00;0.00;;;;;;;-145.06;100.00;63404.56;10309263;28;20117;-91
2022/05/21 02:53:56;;;;;;;0.10;0.10;;;;;;;-145.06;100.00;63404.56;10316667;28;20022;-91
2022/05/21 02:58:56;;;;;;;0.00;0.00;;;;;;;-145.06;100.00;63404.56;10312090;28;20026;-93
2022/05/21 03:03:57;;;;;;;0.00;0.00;;;;;;;-145.06;100.00;63404.56;10308246;28;20269;-91
2022/05/21 03:14:16;;;;;;;0.10;0.10;;;;;;;-145.06;100.00;63404.56;10308542;28;20026;-91
2022/05/21 03:19:17;;;;;;;0.10;0.10;;;;;;;-145.06;100.00;63404.56;10308805;28;20018;-91
2022/05/21 03:24:17;;;;;;;0.10;0.10;;;;;;;-145.06;100.00;63404.56;10306429;28;20170;-91
2022/05/21 03:29:18;;;;;;;0.00;0.00;;;;;;;-145.06;100.00;63404.56;10305916;28;20022;-91
2022/05/21 03:34:19;;;;;;;0.00;0.00;;;;;;;-145.06;100.00;63404.56;10318832;28;20169;-91
2022/05/21 03:39:19;;;;;;;0.10;0.10;;;;;;;-145.06;100.00;63404.56;10317609;28;20030;-91
2022/05/21 03:44:20;;;;;;;0.00;0.00;;;;;;;-145.06;100.00;63404.56;10318096;28;20014;-91
2022/05/21 03:49:20;;;;;;;0.08;0.08;;;;;;;-145.06;100.00;63404.56;10318993;28;20022;-91
2022/05/21 03:54:21;;;;;;;0.00;0.00;;;;;;;-145.06;100.00;63404.56;10318332;28;20053;-91
2022/05/21 03:59:21;;;;;;;0.05;0.05;;;;;;;-145.06;100.00;63404.56;10316985;28;20014;-92
2022/05/21 04:04:22;;;;;;;0.03;0.03;;;;;;;-145.06;100.00;63404.56;10318684;28;20019;-91
2022/05/21 04:09:22;;;;;;;0.00;0.00;;;;;;;-145.06;100.00;63404.56;10324608;28;20068;-91
2022/05/21 04:14:27;;;;;;;0.00;0.00;;;;;;;-145.06;100.00;63404.56;10336505;28;20129;-91
2022/05/21 04:19:29;;;;;;;0.00;0.00;;;;;;;-145.06;100.00;63404.56;10314587;28;20152;-91
2022/05/21 04:24:30;;;;;;;0.00;0.00;;;;;;;-145.06;100.00;63404.56;10318670;28;20014;-91
2022/05/21 04:29:30;;;;;;;0.10;0.10;;;;;;;-145.06;100.00;63404.56;10314831;28;20464;-91
2022/05/21 04:34:31;;;;;;;0.10;0.10;;;;;;;-145.06;100.00;63404.56;10318950;28;20030;-91
2022/05/21 04:39:31;;;;;;;0.10;0.10;;;;;;;-145.06;100.00;63404.56;10313962;28;20030;-91
2022/05/21 04:44:34;;;;;;;0.00;0.00;;;;;;;-145.06;100.00;63404.56;10312426;28;20085;-91
2022/05/21 04:49:34;;;;;;;0.00;0.00;;;;;;;-145.06;100.00;63404.56;10348325;22;20101;-90
2022/05/21 04:54:36;;;;;;;0.10;0.10;;;;;;;-145.06;100.00;63404.56;10332420;28;20453;-90
2022/05/21 04:59:37;;;;;;;0.10;0.10;;;;;;;-145.06;100.00;63404.56;10332263;28;20080;-91
2022/05/21 05:04:37;;;;;;;0.05;0.05;;;;;;;-145.06;100.00;63404.56;10333584;28;20044;-90
2022/05/21 05:09:42;;;;;;;0.07;0.07;;;;;;;-145.06;100.00;63404.56;10334065;28;20363;-90
2022/05/21 05:14:43;;;;;;;0.00;0.00;;;;;;;-145.06;100.00;63404.56;10334800;28;20026;-90
2022/05/21 05:19:43;;;;;;;0.10;0.10;;;;;;;-145.06;100.00;63404.56;10334875;28;20492;-90
2022/05/21 05:24:43;;;;;;;0.10;0.10;;;;;;;-145.06;100.00;63404.56;10334023;28;20475;-90
2022/05/21 05:29:44;;;;;;;0.00;0.00;;;;;;;-145.06;100.00;63404.56;10335202;28;20483;-91
2022/05/21 05:34:45;;;;;;;0.10;0.10;;;;;;;-145.06;100.00;63404.56;10332377;28;20031;-91
2022/05/21 05:39:45;;;;;;;0.10;0.10;;;;;;;-145.06;100.00;63404.56;10333796;28;20022;-91
2022/05/21 05:44:45;;;;;;;0.00;0.00;;;;;;;-145.06;100.00;63404.56;10332366;28;20407;-91
2022/05/21 05:49:46;;;;;;;0.00;0.00;;;;;;;-145.06;100.00;63404.56;10332626;28;20034;-91
2022/05/21 05:54:46;;;;;;;0.00;0.00;;;;;;;-145.06;100.00;63404.56;10321724;28;20026;-90
2022/05/21 05:59:49;;;;;;;0.10;0.10;;;;;;;-145.06;100.00;63404.56;10334166;28;20050;-91
2022/05/21 06:04:50;;;;;;;0.10;0.10;;;;;;;-145.06;100.00;63404.56;10340525;28;20022;-87
2022/05/21 06:09:50;;;;;;;0.10;0.10;;;;;;;-145.06;100.00;63404.56;10344109;28;20375;-87
2022/05/21 06:14:53;;;;;;;0.10;0.10;;;;;;;-145.06;100.00;63404.56;10346544;28;20117;-87
2022/05/21 06:19:53;;;;;;;0.00;0.00;;;;;;;-145.06;100.00;63404.56;10346491;28;20389;-87
2022/05/21 06:24:53;;;;;;;0.10;0.10;;;;;;;-145.06;100.00;63404.56;10355896;28;20023;-87
2022/05/21 06:29:54;;;;;;;0.00;0.00;;;;;;;-145.06;100.00;63404.56;10383676;28;20406;-87
2022/05/21 06:34:54;;;;;;;0.10;0.10;;;;;;;-145.06;100.00;63404.56;10386973;28;20048;-87
2022/05/21 06:39:54;;;;;;;0.10;0.10;;;;;;;-145.06;100.00;63404.56;10387964;28;20060;-86
2022/05/21 06:44:55;;;;;;;0.10;0.10;;;;;;;-145.06;100.00;63404.56;10388655;28;20482;-87
2022/05/21 06:50:16;;;;;;;0.10;0.10;;;;;;;-145.06;100.00;63404.56;10389517;28;20018;-93
2022/05/21 06:55:17;;;;;;;0.10;0.10;;;;;;;-145.06;100.00;63404.56;10354510;28;20589;-93
2022/05/21 07:00:20;;;;;;;0.10;0.10;;;;;;;-145.06;100.00;63404.56;10341504;28;20165;-93
2022/05/21 07:10:40;;;;;;;0.10;0.10;;;;;;;-145.06;100.00;63404.56;10345550;28;20082;-93
2022/05/21 07:15:42;;;;;;;0.00;0.00;;;;;;;-145.06;100.00;63404.56;10348101;28;20022;-93
2022/05/21 07:20:42;;;;;;;0.10;0.10;;;;;;;-145.06;100.00;63404.56;10343203;28;20272;-93
2022/05/21 07:25:44;;;;;;;0.10;0.10;;;;;;;-145.06;100.00;63404.56;10348074;28;20049;-91
2022/05/21 07:30:45;;;;;;;0.10;0.10;;;;;;;-145.06;100.00;63404.56;10342281;28;20031;-91
2022/05/21 07:35:46;;;;;;;0.10;0.10;;;;;;;-145.06;100.00;63404.56;10345050;28;20030;-91
2022/05/21 07:40:48;;;;;;;0.10;0.10;;;;;;;-145.06;100.00;63404.56;10343452;28;20469;-90
2022/05/21 07:45:49;;;;;;;0.10;0.10;;;;;;;-145.06;100.00;63404.56;10346514;28;20118;-92
2022/05/21 07:50:56;;;;;;;0.10;0.10;;;;;;;-145.06;100.00;63404.56;10355439;28;20094;-91
2022/05/21 07:55:58;;;;;;;0.10;0.10;;;;;;;-145.06;100.00;63404.56;10343537;28;20034;-91
2022/05/21 08:00:58;;;;;;;0.10;0.10;;;;;;;-145.06;100.00;63404.56;10338974;28;20403;-91
2022/05/21 08:05:59;;;;;;;0.10;0.10;;;;;;;-145.06;100.00;63404.56;10342060;28;20022;-91
2022/05/21 08:10:59;;;;;;;0.10;0.10;;;;;;;-145.06;100.00;63404.56;10347147;28;20509;-92
2022/05/21 08:16:01;;;;;;;0.10;0.10;;;;;;;-145.06;100.00;63404.56;10345353;28;20283;-92
2022/05/21 08:21:01;;;;;;;0.10;0.10;;;;;;;-145.06;100.00;63404.56;10354791;28;20499;-92
2022/05/21 08:31:21;;;;;;;0.10;0.10;;;;;;;-145.06;100.00;63404.56;10353482;28;20050;-92
2022/05/21 08:36:22;;;;;;;0.10;0.10;;;;;;;-145.06;100.00;63404.56;10350743;28;20022;-93
2022/05/21 08:41:25;;;;;;;0.10;0.10;;;;;;;-145.06;100.00;63404.56;10354115;28;20384;-93
2022/05/21 08:47:03;;;;;;;0.10;0.10;;;;;;;-145.06;100.00;63404.56;10354804;28;20261;-92
2022/05/21 08:52:23;;;;;;;0.10;0.10;;;;;;;-145.06;100.00;63404.56;10343479;28;20130;-93
2022/05/21 08:57:42;;;;;;;0.10;0.10;;;;;;;-145.06;100.00;63404.56;10365633;28;20084;-92
2022/05/21 09:02:43;;;;;;;0.10;0.10;;;;;;;-145.06;100.00;63404.56;10357116;28;20038;-92
2022/05/21 09:08:08;;;;;;;0.10;0.10;;;;;;;-145.06;100.00;63404.56;10356854;28;20634;-92
2022/05/21 09:13:24;;;;;;;0.10;0.10;;;;;;;-145.06;100.00;63404.56;10363347;28;20105;-92
2022/05/21 09:18:25;;;;;;;0.10;0.10;;;;;;;-145.06;100.00;63404.56;10353571;28;20032;-92
2022/05/21 09:23:46;;;;;;;0.10;0.10;;;;;;;-145.06;100.00;63404.56;10352950;28;20034;-93
2022/05/21 09:28:48;;;;;;;0.00;0.00;;;;;;;-145.06;100.00;63404.56;10360951;28;20061;-93
2022/05/21 09:33:49;;;;;;;0.00;0.00;;;;;;;-145.06;100.00;63404.56;10367473;28;20027;-93
2022/05/21 09:38:55;;;;;;;0.10;0.10;;;;;;;-145.06;100.00;63404.56;10365003;28;20030;-93
2022/05/21 09:49:30;;;;;;;0.10;0.10;;;;;;;-145.06;100.00;63404.56;10372928;28;20058;-92
2022/05/21 09:54:40;;;;;;;0.10;0.10;;;;;;;-145.06;100.00;63404.56;10371761;28;20049;-93
2022/05/21 10:00:19;;;;;;;0.00;0.00;;;;;;;-145.06;100.00;63404.56;10373630;28;20125;-92
2022/05/21 10:05:35;;;;;;;0.00;0.00;;;;;;;-145.06;100.00;63404.56;10370753;28;20045;-92
2022/05/21 10:10:59;;;;;;;0.10;0.10;;;;;;;-145.06;100.00;63404.56;10371518;28;20085;-94
2022/05/21 10:16:37;;;;;;;0.00;0.00;;;;;;;-145.06;100.00;63404.56;10375414;28;20050;-94
2022/05/21 10:21:42;;;;;;;0.10;0.10;;;;;;;-145.06;100.00;63404.56;10374884;28;20038;-94
2022/05/21 10:27:04;;;;;;;0.10;0.10;;;;;;;-145.06;100.00;63404.56;10389427;28;20061;-94
2022/05/21 10:32:40;;;;;;;0.10;0.10;;;;;;;-145.06;100.00;63404.56;10377736;28;20026;-94
2022/05/21 10:38:02;;;;;;;0.00;0.00;;;;;;;-145.06;100.00;63404.56;10371331;28;20041;-92
2022/05/21 10:43:41;;;;;;;0.03;0.03;;;;;;;-145.06;100.00;63404.56;10376870;28;20041;-92
2022/05/21 10:49:05;;;;;;;0.10;0.10;;;;;;;-145.06;100.00;63404.56;10395212;22;20021;-90
2022/05/21 10:54:14;;;;;;;0.10;0.10;;;;;;;-145.06;100.00;63404.56;10335994;28;20018;-92
2022/05/21 10:59:27;;;;;;;0.00;0.00;;;;;;;-145.06;100.00;63404.56;10340106;28;20022;-93
2022/05/21 11:04:40;;;;;;;0.10;0.10;;;;;;;-145.06;100.00;63404.56;10333809;28;20535;-92
2022/05/21 11:09:45;;;;;;;0.10;0.10;;;;;;;-145.06;100.00;63404.56;10331990;28;20034;-92
2022/05/21 11:15:03;;;;;;;0.00;0.00;;;;;;;-145.06;100.00;63404.56;10334829;28;20022;-92
2022/05/21 11:20:19;;;;;;;0.10;0.10;;;;;;;-145.06;100.00;63404.56;10334230;28;20108;-93
2022/05/21 11:25:27;;;;;;;0.10;0.10;;;;;;;-145.06;100.00;63404.56;10331963;28;20041;-92
2022/05/21 11:30:28;;;;;;;0.10;0.10;;;;;;;-145.06;100.00;63404.56;10335300;28;20022;-91
2022/05/21 11:41:29;;;;;;;0.10;0.10;;;;;;;-145.06;100.00;63404.56;10351691;28;20077;-92
2022/05/21 11:46:36;;;;;;;0.00;0.00;;;;;;;-145.06;100.00;63404.56;10376944;28;20034;-92
2022/05/21 11:51:37;;;;;;;0.10;0.10;;;;;;;-145.06;100.00;63404.56;10378884;28;20014;-92
2022/05/21 11:57:01;;;;;;;0.00;0.00;;;;;;;-145.06;100.00;63404.56;10392861;28;20025;-91
2022/05/21 12:02:20;;;;;;;0.10;0.10;;;;;;;-145.06;100.00;63404.56;10384774;28;21096;-91
2022/05/21 12:07:48;;;;;;;0.00;0.00;;;;;;;-145.06;100.00;63404.56;10379724;28;20025;-92
2022/05/21 12:13:06;;;;;;;0.10;0.10;;;;;;;-145.06;100.00;63404.56;10339961;28;20084;-92
2022/05/21 12:18:30;;;;;;;0.10;0.10;;;;;;;-145.06;100.00;63404.56;10340400;28;20022;-93
2022/05/21 12:23:38;;;;;;;0.10;0.10;;;;;;;-145.06;100.00;63404.56;10341078;28;20033;-92
2022/05/21 12:28:42;;;;;;;0.00;0.00;;;;;;;-145.06;100.00;63404.56;10346454;28;20517;-92
2022/05/21 12:33:55;;;;;;;0.10;0.10;;;;;;;-145.06;100.00;63404.56;10342278;28;20499;-92
2022/05/21 12:39:00;;;;;;;0.10;0.10;;;;;;;-145.06;100.00;63404.56;10358755;28;20040;-92
2022/05/21 12:44:00;;;;;;;0.00;0.00;;;;;;;-145.06;100.00;63404.56;10348767;28;20015;-91
2022/05/21 12:49:11;;;;;;;0.00;0.00;;;;;;;-145.06;100.00;63404.56;10345382;28;20022;-92
2022/05/21 12:54:27;;;;;;;0.00;0.00;;;;;;;-145.06;100.00;63404.56;10341157;28;20049;-92
2022/05/21 12:59:30;;;;;;;0.10;0.10;;;;;;;-145.06;100.00;63404.56;10343770;28;20018;-92
2022/05/21 13:04:38;;;;;;;0.10;0.10;;;;;;;-145.06;100.00;63404.56;10340821;28;20025;-94
2022/05/21 13:09:54;;;;;;;0.10;0.10;;;;;;;-145.06;100.00;63404.56;10339881;28;20048;-93
2022/05/21 13:14:55;;;;;;;0.10;0.10;;;;;;;-145.06;100.00;63404.56;10340742;28;20028;-93
2022/05/21 13:20:31;;;;;;;0.00;0.00;;;;;;;-145.06;100.00;63404.56;10353279;22;20473;-65
2022/05/21 13:25:32;;;;;;;0.00;0.00;;;;;;;-145.06;100.00;63404.56;10325701;28;20114;-67
2022/05/21 13:30:35;;;;;;;0.10;0.10;;;;;;;-145.06;100.00;63404.56;10337907;28;20588;-66
2022/05/21 13:35:37;;;;;;;;;;;;;;;-145.06;100.00;63404.56;10365076;28;20026;-66
2022/05/21 13:40:50;;;;;;;0.10;0.10;;;;;;;-145.06;100.00;63404.56;10357289;28;19960;-67
2022/05/21 13:45:54;;;;;;;0.00;0.00;;;;;;;-145.06;100.00;63404.56;10339270;28;20041;-65
2022/05/21 13:50:55;;;;;;;0.10;0.10;;;;;;;-145.06;100.00;63404.56;10338152;28;20070;-65
2022/05/21 13:56:24;;;;;;;0.10;0.10;;;;;;;-145.06;100.00;63404.56;10344927;28;20029;-66
2022/05/21 14:01:30;;;;;;;0.00;0.00;;;;;;;-145.06;100.00;63404.56;10338005;28;20023;-67
2022/05/21 14:06:31;;;;;;;0.10;0.10;;;;;;;-145.06;100.00;63404.56;10354396;28;20112;-67
2022/05/21 14:11:31;;;;;;;0.10;0.10;;;;;;;-145.06;100.00;63404.56;10351052;28;20105;-66
2022/05/21 14:16:36;;;;;;;0.10;0.10;;;;;;;-145.06;100.00;63404.56;10341722;28;20032;-67
2022/05/21 14:22:13;;;;;;;0.10;0.10;;;;;;;-145.06;100.00;63404.56;10358094;28;20069;-67
2022/05/21 14:27:19;;;;;;;0.10;0.10;;;;;;;-145.06;100.00;63404.56;10345437;28;20034;-66
2022/05/21 14:32:29;;;;;;;0.10;0.10;;;;;;;-145.06;100.00;63404.56;10343510;28;20525;-65
2022/05/21 14:37:29;;;;;;;0.10;0.10;;;;;;;-145.06;100.00;63404.56;10342266;28;20131;-67
2022/05/21 14:42:31;;;;;;;0.10;0.10;;;;;;;-145.06;100.00;63404.56;10344247;28;20015;-64
2022/05/21 14:52:57;;;;;;;0.00;0.00;;;;;;;-145.06;100.00;63404.56;10357396;28;20101;-66
2022/05/21 14:57:57;;;;;;;0.08;0.08;;;;;;;-145.06;100.00;63404.56;10341094;28;20026;-66
2022/05/21 15:02:57;;;;;;;0.10;0.10;;;;;;;-145.06;100.00;63404.56;10341257;28;20022;-66
2022/05/21 15:08:00;;;;;;;0.00;0.00;;;;;;;-145.06;100.00;63404.56;10346772;28;20388;-66
2022/05/21 15:13:01;;;;;;;0.10;0.10;;;;;;;-145.06;100.00;63404.56;10350994;28;20026;-66
2022/05/21 15:18:01;;;;;;;0.10;0.10;;;;;;;-145.06;100.00;63404.56;10347217;28;20026;-66
2022/05/21 15:23:02;;;;;;;0.00;0.00;;;;;;;-145.06;100.00;63404.56;10348937;28;20125;-67
2022/05/21 15:28:03;;;;;;;0.00;0.00;;;;;;;-145.06;100.00;63404.56;10352511;28;20105;-67
2022/05/21 15:33:03;;;;;;;0.10;0.10;;;;;;;-145.06;100.00;63404.56;10360154;28;20017;-66
2022/05/21 15:38:04;;;;;;;0.10;0.10;;;;;;;-145.06;100.00;63404.56;10345034;28;20028;-66
2022/05/21 15:43:04;;;;;;;0.10;0.10;;;;;;;-145.06;100.00;63404.56;10352311;28;20356;-67
2022/05/21 15:48:05;;;;;;;0.00;0.00;;;;;;;-145.06;100.00;63404.56;10346262;28;20168;-67
2022/05/21 15:53:07;;;;;;;0.10;0.10;;;;;;;-145.06;100.00;63404.56;10350925;28;20026;-67
2022/05/21 15:58:07;;;;;;;0.10;0.10;;;;;;;-145.06;100.00;63404.56;10345430;28;20029;-67
2022/05/21 16:03:08;;;;;;;0.10;0.10;;;;;;;-145.06;100.00;63404.56;10344840;28;20017;-66
2022/05/21 16:08:08;;;;;;;0.10;0.10;;;;;;;-145.06;100.00;63404.56;10349368;28;20100;-66
2022/05/21 16:13:10;;;;;;;0.10;0.10;;;;;;;-145.06;100.00;63404.56;10357425;28;20100;-67
2022/05/21 16:18:12;;;;;;;0.10;0.10;;;;;;;-145.06;100.00;63404.56;10349341;28;20026;-66
2022/05/21 16:23:14;;;;;;;0.10;0.10;;;;;;;-145.06;100.00;63404.56;10373746;28;20018;-67
2022/05/21 16:28:15;;;;;;;0.10;0.10;;;;;;;-145.06;100.00;63404.56;10368269;28;20053;-65
2022/05/21 16:33:16;;;;;;;0.10;0.10;;;;;;;-145.06;100.00;63404.56;10344757;28;20084;-66
2022/05/21 16:38:16;;;;;;;0.10;0.10;;;;;;;-145.06;100.00;63404.56;10338862;28;20108;-67
2022/05/21 16:43:16;;;;;;;0.00;0.00;;;;;;;-145.06;100.00;63404.56;10335264;28;20034;-66
2022/05/21 16:48:18;;;;;;;0.10;0.10;;;;;;;-145.06;100.00;63404.56;10342901;28;20058;-65
2022/05/21 16:53:18;;;;;;;0.10;0.10;;;;;;;-145.06;100.00;63404.56;10363565;22;20046;-68
2022/05/21 16:58:19;;;;;;;0.03;0.03;;;;;;;-145.06;100.00;63404.56;10330028;28;20027;-68
2022/05/21 17:03:19;;;;;;;0.05;0.05;;;;;;;-145.06;100.00;63404.56;10331493;28;20029;-67
2022/05/21 17:08:19;;;;;;;0.00;0.00;;;;;;;-145.06;100.00;63404.56;10345901;28;20014;-67
2022/05/21 17:13:20;;;;;;;0.10;0.10;;;;;;;-145.06;100.00;63404.56;10350086;28;20029;-65
2022/05/21 17:18:20;;;;;;;0.10;0.10;;;;;;;-145.06;100.00;63404.56;10352286;28;20093;-67
2022/05/21 17:23:21;;;;;;;0.00;0.00;;;;;;;-145.06;100.00;63404.56;10360788;28;20022;-67
2022/05/21 17:33:41;;;;;;;0.10;0.10;;;;;;;-145.06;100.00;63404.56;10371177;28;20021;-66
2022/05/21 17:38:45;;;;;;;0.10;0.10;;;;;;;-145.06;100.00;63404.56;10365281;28;20413;-69
2022/05/21 17:43:45;;;;;;;0.10;0.10;;;;;;;-145.06;100.00;63404.56;10368357;28;20076;-70
2022/05/21 17:48:46;;;;;;;0.00;0.00;;;;;;;-145.06;100.00;63404.56;10364434;28;20080;-71
2022/05/21 17:53:46;;;;;;;0.10;0.10;;;;;;;-145.06;100.00;63404.56;10367301;28;20030;-68
2022/05/21 17:58:47;;;;;;;0.10;0.10;;;;;;;-145.06;100.00;63404.56;10337270;28;20041;-68
2022/05/21 18:03:48;;;;;;;0.10;0.10;;;;;;;-145.06;100.00;63404.56;10328312;28;20030;-68
2022/05/21 18:08:48;;;;;;;0.10;0.10;;;;;;;-145.06;100.00;63404.56;10329093;28;20030;-66
2022/05/21 18:13:49;;;;;;;0.00;0.00;;;;;;;-145.06;100.00;63404.56;10327813;28;20049;-67
2022/05/21 18:24:08;;;;;;;0.10;0.10;;;;;;;-145.06;100.00;63404.56;10351933;28;20405;-65
2022/05/21 18:29:09;;;;;;;0.10;0.10;;;;;;;-145.06;100.00;63404.56;10355817;28;20034;-66
2022/05/21 18:34:10;;;;;;;0.00;0.00;;;;;;;-145.06;100.00;63404.56;10341603;28;20412;-66
2022/05/21 18:39:12;;;;;;;0.10;0.10;;;;;;;-145.06;100.00;63404.56;10338530;28;20116;-68
2022/05/21 18:44:13;;;;;;;0.10;0.10;;;;;;;-145.06;100.00;63404.56;10346104;28;20076;-68
2022/05/21 18:49:13;;;;;;;0.00;0.00;;;;;;;-145.06;100.00;63404.56;10340552;28;20451;-67
2022/05/21 18:54:14;;;;;;;0.10;0.10;;;;;;;-145.06;100.00;63404.56;10338430;28;20026;-68
2022/05/21 18:59:14;;;;;;;0.10;0.10;;;;;;;-145.06;100.00;63404.56;10343636;28;20032;-67
2022/05/21 19:04:15;;;;;;;0.10;0.10;;;;;;;-145.06;100.00;63404.56;10344212;28;20025;-68
2022/05/21 19:09:15;;;;;;;0.10;0.10;;;;;;;-145.06;100.00;63404.56;10340119;28;20603;-67
2022/05/21 19:14:15;;;;;;;0.00;0.00;;;;;;;-145.06;100.00;63404.56;10337654;28;20367;-67
2022/05/21 19:19:17;;;;;;;0.10;0.10;;;;;;;-145.06;100.00;63404.56;10343866;28;20539;-67
2022/05/21 19:24:23;;;;;;;0.10;0.10;;;;;;;-145.06;100.00;63404.56;10355704;28;20022;-69
2022/05/21 19:29:26;;;;;;;0.10;0.10;;;;;;;-145.06;100.00;63404.56;10341507;28;20508;-69
2022/05/21 19:34:27;;;;;;;0.10;0.10;;;;;;;-145.06;100.00;63404.56;10336916;28;20019;-67
2022/05/21 19:44:49;;;;;;;0.10;0.10;;;;;;;-145.06;100.00;63404.56;10346222;28;20026;-68
2022/05/21 19:49:49;;;;;;;0.10;0.10;;;;;;;-145.06;100.00;63404.56;10343143;28;20544;-67
2022/05/21 19:54:50;;;;;;;0.10;0.10;;;;;;;-145.06;100.00;63404.56;10340703;28;20030;-67
2022/05/21 19:59:50;;;;;;;0.00;0.00;;;;;;;-145.06;100.00;63404.56;10349332;28;20509;-67
2022/05/21 20:04:51;;;;;;;0.10;0.10;;;;;;;-145.06;100.00;63404.56;10344305;28;20016;-68
2022/05/21 20:09:51;;;;;;;0.00;0.00;;;;;;;-145.06;100.00;63404.56;10336743;28;20049;-67
2022/05/21 20:14:51;;;;;;;0.00;0.00;;;;;;;-145.06;100.00;63404.56;10343488;28;20428;-68
2022/05/21 20:19:51;;;;;;;0.10;0.10;;;;;;;-145.06;100.00;63404.56;10352462;28;20425;-67
2022/05/21 20:24:52;;;;;;;0.10;0.10;;;;;;;-145.06;100.00;63404.56;10349351;28;20089;-67
2022/05/21 20:29:52;;;;;;;0.10;0.10;;;;;;;-145.06;100.00;63404.56;10360769;28;20022;-67
2022/05/21 20:34:52;;;;;;;0.10;0.10;;;;;;;-145.06;100.00;63404.56;10347848;28;20057;-67
2022/05/21 20:39:53;;;;;;;0.10;0.10;;;;;;;-145.06;100.00;63404.56;10361531;28;20037;-67
2022/05/21 20:44:53;;;;;;;0.10;0.10;;;;;;;-145.06;100.00;63404.56;10353978;28;20083;-67
2022/05/21 20:49:53;;;;;;;0.00;0.00;;;;;;;-145.06;100.00;63404.56;10350516;28;20067;-67
2022/05/21 20:54:54;;;;;;;0.10;0.10;;;;;;;-145.06;100.00;63404.56;10350730;28;20022;-67
2022/05/21 20:59:54;;;;;;;0.10;0.10;;;;;;;-145.06;100.00;63404.56;10349603;28;20381;-67
2022/05/21 21:04:54;;;;;;;0.10;0.10;;;;;;;-145.06;100.00;63404.56;10351620;28;20022;-67
2022/05/21 21:09:54;;;;;;;0.13;0.13;;;;;;;-145.06;100.00;63404.56;10352054;28;20538;-67
2022/05/21 21:14:55;;;;;;;0.00;0.00;;;;;;;-145.06;100.00;63404.56;10350342;28;20385;-68
2022/05/21 21:19:55;;;;;;;0.03;0.03;;;;;;;-145.06;100.00;63404.56;10361249;28;20033;-67
2022/05/21 21:24:55;;;;;;;0.10;0.10;;;;;;;-145.06;100.00;63404.56;10354871;28;20014;-68
2022/05/21 21:29:56;;;;;;;0.10;0.10;;;;;;;-145.06;100.00;63404.56;10351932;28;20029;-67
2022/05/21 21:34:56;;;;;;;0.10;0.10;;;;;;;-145.06;100.00;63404.56;10350278;28;20010;-67
2022/05/21 21:39:57;;;;;;;0.10;0.10;;;;;;;-145.06;100.00;63404.56;10353766;28;20036;-67
2022/05/21 21:44:57;;;;;;;0.00;0.00;;;;;;;-145.06;100.00;63404.56;10347489;28;20045;-67
2022/05/21 21:49:58;;;;;;;0.08;0.08;;;;;;;-145.06;100.00;63404.56;10340893;28;20116;-67
2022/05/21 21:54:59;;;;;;;0.10;0.10;;;;;;;-145.06;100.00;63404.56;10344470;28;20026;-67
2022/05/21 22:05:18;;;;;;;0.08;0.08;;;;;;;-145.06;100.00;63404.56;10341753;28;20485;-69
2022/05/21 22:10:19;;;;;;;0.10;0.10;;;;;;;-145.06;100.00;63404.56;10352351;28;20022;-67
2022/05/21 22:15:19;;;;;;;0.10;0.10;;;;;;;-145.06;100.00;63404.56;10348119;28;20114;-68
2022/05/21 22:20:19;;;;;;;0.10;0.10;;;;;;;-145.06;100.00;63404.56;10355345;28;20025;-67
2022/05/21 22:25:19;;;;;;;0.10;0.10;;;;;;;-145.06;100.00;63404.56;10351098;28;20397;-68
2022/05/21 22:30:20;;;;;;;0.10;0.10;;;;;;;-145.06;100.00;63404.56;10330098;28;20061;-67
2022/05/21 22:35:20;;;;;;;0.00;0.00;;;;;;;-145.06;100.00;63404.56;10343550;28;20048;-68
2022/05/21 22:40:20;;;;;;;0.00;0.00;;;;;;;-145.06;100.00;63404.56;10353519;28;20426;-68
2022/05/21 22:45:21;;;;;;;0.05;0.05;;;;;;;-145.06;100.00;63404.56;10346604;28;20083;-67
2022/05/21 22:50:21;;;;;;;0.10;0.10;;;;;;;-145.06;100.00;63404.56;10348795;28;20026;-69
2022/05/21 22:55:23;;;;;;;0.00;0.00;;;;;;;-145.06;100.00;63404.56;10354312;28;20498;-69
2022/05/21 23:00:25;;;;;;;0.10;0.10;;;;;;;-145.06;100.00;63404.56;10345198;28;20045;-68
2022/05/21 23:05:25;;;;;;;0.10;0.10;;;;;;;-145.06;100.00;63404.56;10382422;22;20463;-66
2022/05/21 23:10:28;;;;;;;0.10;0.10;;;;;;;-145.06;100.00;63404.56;10417096;28;20049;-65
2022/05/21 23:20:57;;;;;;;0.10;0.10;;;;;;;-145.06;100.00;63404.56;10409955;28;20037;-66
2022/05/21 23:25:57;;;;;;;0.00;0.00;;;;;;;-145.06;100.00;63404.56;10407338;28;20048;-65
2022/05/21 23:30:58;;;;;;;0.10;0.10;;;;;;;-145.06;100.00;63404.56;10407811;28;20103;-64
2022/05/21 23:36:00;;;;;;;0.10;0.10;;;;;;;-145.06;100.00;63404.56;10407044;28;20029;-63
2022/05/21 23:41:00;;;;;;;0.10;0.10;;;;;;;-145.06;100.00;63404.56;10406728;28;20508;-63
2022/05/21 23:46:01;;;;;;;0.10;0.10;;;;;;;-145.06;100.00;63404.56;10410715;28;20017;-64
2022/05/21 23:51:03;;;;;;;0.00;0.00;;;;;;;-145.06;100.00;63404.56;10430335;28;20263;-64
2022/05/21 23:56:06;;;;;;;0.00;0.00;;;;;;;-145.06;100.00;63404.56;10451822;28;20032;-63
